sensor_id;sensor_type;location;lat;lon;timestamp;P1;durP1;ratioP1;P2;durP2;ratioP2
58727;SDS011;44505;43.240;0.070;2023-03-01T00:02:03;10.10;;;8.07;;
58727;SDS011;44505;43.240;0.070;2023-03-01T00:04:29;144.70;;;45.83;;
58727;SDS011;44505;43.240;0.070;2023-03-01T00:06:55;183.63;;;66.55;;
58727;SDS011;44505;43.240;0.070;2023-03-01T00:09:20;215.65;;;77.05;;
58727;SDS011;44505;43.240;0.070;2023-03-01T00:11:46;91.63;;;38.13;;
58727;SDS011;44505;43.240;0.070;2023-03-01T00:14:11;26.10;;;18.10;;
58727;SDS011;44505;43.240;0.070;2023-03-01T00:16:38;36.20;;;21.98;;
58727;SDS011;44505;43.240;0.070;2023-03-01T00:19:04;24.30;;;15.55;;
58727;SDS011;44505;43.240;0.070;2023-03-01T00:21:30;43.55;;;23.50;;
58727;SDS011;44505;43.240;0.070;2023-03-01T00:23:55;43.20;;;21.55;;
58727;SDS011;44505;43.240;0.070;2023-03-01T00:26:21;343.30;;;136.30;;
58727;SDS011;44505;43.240;0.070;2023-03-01T00:28:48;229.65;;;89.28;;
58727;SDS011;44505;43.240;0.070;2023-03-01T00:31:21;177.30;;;73.55;;
58727;SDS011;44505;43.240;0.070;2023-03-01T00:33:46;53.58;;;30.33;;
58727;SDS011;44505;43.240;0.070;2023-03-01T00:36:12;69.15;;;40.45;;
58727;SDS011;44505;43.240;0.070;2023-03-01T00:38:39;47.17;;;27.98;;
58727;SDS011;44505;43.240;0.070;2023-03-01T00:41:08;87.75;;;47.25;;
58727;SDS011;44505;43.240;0.070;2023-03-01T00:43:34;75.80;;;41.28;;
58727;SDS011;44505;43.240;0.070;2023-03-01T00:46:05;17.57;;;13.93;;
58727;SDS011;44505;43.240;0.070;2023-03-01T00:48:31;61.08;;;35.13;;
58727;SDS011;44505;43.240;0.070;2023-03-01T00:50:56;39.65;;;25.02;;
58727;SDS011;44505;43.240;0.070;2023-03-01T00:53:22;19.27;;;14.80;;
58727;SDS011;44505;43.240;0.070;2023-03-01T00:55:47;31.75;;;15.05;;
58727;SDS011;44505;43.240;0.070;2023-03-01T00:58:12;93.13;;;32.88;;
58727;SDS011;44505;43.240;0.070;2023-03-01T01:00:38;13.43;;;10.75;;
58727;SDS011;44505;43.240;0.070;2023-03-01T01:03:03;86.95;;;27.38;;
58727;SDS011;44505;43.240;0.070;2023-03-01T01:05:29;194.18;;;60.53;;
58727;SDS011;44505;43.240;0.070;2023-03-01T01:07:54;109.85;;;38.72;;
58727;SDS011;44505;43.240;0.070;2023-03-01T01:10:19;89.05;;;32.10;;
58727;SDS011;44505;43.240;0.070;2023-03-01T01:12:45;37.85;;;20.60;;
58727;SDS011;44505;43.240;0.070;2023-03-01T01:15:10;37.38;;;17.52;;
58727;SDS011;44505;43.240;0.070;2023-03-01T01:17:38;16.77;;;12.15;;
58727;SDS011;44505;43.240;0.070;2023-03-01T01:20:04;13.25;;;9.05;;
58727;SDS011;44505;43.240;0.070;2023-03-01T01:22:29;10.75;;;7.75;;
58727;SDS011;44505;43.240;0.070;2023-03-01T01:24:55;31.10;;;15.00;;
58727;SDS011;44505;43.240;0.070;2023-03-01T01:27:20;17.70;;;9.55;;
58727;SDS011;44505;43.240;0.070;2023-03-01T01:29:46;17.23;;;9.63;;
58727;SDS011;44505;43.240;0.070;2023-03-01T01:32:11;22.75;;;11.60;;
58727;SDS011;44505;43.240;0.070;2023-03-01T01:34:36;29.38;;;13.52;;
58727;SDS011;44505;43.240;0.070;2023-03-01T01:37:02;14.20;;;8.45;;
58727;SDS011;44505;43.240;0.070;2023-03-01T01:39:27;39.65;;;16.83;;
58727;SDS011;44505;43.240;0.070;2023-03-01T01:41:53;11.35;;;7.43;;
58727;SDS011;44505;43.240;0.070;2023-03-01T01:46:45;12.65;;;8.10;;
58727;SDS011;44505;43.240;0.070;2023-03-01T01:49:16;12.77;;;7.40;;
58727;SDS011;44505;43.240;0.070;2023-03-01T01:51:43;7.10;;;6.35;;
58727;SDS011;44505;43.240;0.070;2023-03-01T01:54:13;9.38;;;6.30;;
58727;SDS011;44505;43.240;0.070;2023-03-01T01:56:40;13.02;;;6.97;;
58727;SDS011;44505;43.240;0.070;2023-03-01T01:59:07;14.65;;;7.90;;
58727;SDS011;44505;43.240;0.070;2023-03-01T02:01:32;27.05;;;12.13;;
58727;SDS011;44505;43.240;0.070;2023-03-01T02:03:58;17.35;;;9.88;;
58727;SDS011;44505;43.240;0.070;2023-03-01T02:06:26;22.45;;;11.32;;
58727;SDS011;44505;43.240;0.070;2023-03-01T02:08:53;14.35;;;8.30;;
58727;SDS011;44505;43.240;0.070;2023-03-01T02:11:22;10.77;;;6.55;;
58727;SDS011;44505;43.240;0.070;2023-03-01T02:13:47;52.67;;;19.98;;
58727;SDS011;44505;43.240;0.070;2023-03-01T02:16:14;47.53;;;19.27;;
58727;SDS011;44505;43.240;0.070;2023-03-01T02:18:40;23.90;;;13.50;;
58727;SDS011;44505;43.240;0.070;2023-03-01T02:23:51;53.33;;;21.65;;
58727;SDS011;44505;43.240;0.070;2023-03-01T02:28:45;28.90;;;13.35;;
58727;SDS011;44505;43.240;0.070;2023-03-01T02:31:14;41.30;;;19.08;;
58727;SDS011;44505;43.240;0.070;2023-03-01T02:33:59;7.75;;;6.63;;
58727;SDS011;44505;43.240;0.070;2023-03-01T02:36:26;11.02;;;7.72;;
58727;SDS011;44505;43.240;0.070;2023-03-01T02:38:52;8.07;;;5.40;;
58727;SDS011;44505;43.240;0.070;2023-03-01T02:41:19;18.40;;;9.80;;
58727;SDS011;44505;43.240;0.070;2023-03-01T02:43:45;18.95;;;8.82;;
58727;SDS011;44505;43.240;0.070;2023-03-01T02:46:14;13.88;;;7.75;;
58727;SDS011;44505;43.240;0.070;2023-03-01T02:48:47;11.00;;;7.05;;
58727;SDS011;44505;43.240;0.070;2023-03-01T02:53:59;10.48;;;6.95;;
58727;SDS011;44505;43.240;0.070;2023-03-01T02:56:29;12.00;;;8.23;;
58727;SDS011;44505;43.240;0.070;2023-03-01T02:58:54;12.20;;;7.38;;
58727;SDS011;44505;43.240;0.070;2023-03-01T03:01:20;9.23;;;7.28;;
58727;SDS011;44505;43.240;0.070;2023-03-01T03:03:45;10.15;;;7.63;;
58727;SDS011;44505;43.240;0.070;2023-03-01T03:06:11;8.40;;;5.90;;
58727;SDS011;44505;43.240;0.070;2023-03-01T03:08:37;6.03;;;4.90;;
58727;SDS011;44505;43.240;0.070;2023-03-01T03:11:03;20.77;;;11.00;;
58727;SDS011;44505;43.240;0.070;2023-03-01T03:13:28;8.73;;;6.18;;
58727;SDS011;44505;43.240;0.070;2023-03-01T03:15:54;8.88;;;6.82;;
58727;SDS011;44505;43.240;0.070;2023-03-01T03:18:20;7.25;;;5.57;;
58727;SDS011;44505;43.240;0.070;2023-03-01T03:20:45;10.30;;;6.15;;
58727;SDS011;44505;43.240;0.070;2023-03-01T03:23:11;20.17;;;10.85;;
58727;SDS011;44505;43.240;0.070;2023-03-01T03:25:37;11.82;;;8.13;;
58727;SDS011;44505;43.240;0.070;2023-03-01T03:28:03;8.32;;;6.05;;
58727;SDS011;44505;43.240;0.070;2023-03-01T03:30:34;7.20;;;6.03;;
58727;SDS011;44505;43.240;0.070;2023-03-01T03:33:00;6.47;;;5.75;;
58727;SDS011;44505;43.240;0.070;2023-03-01T03:37:51;7.40;;;5.18;;
58727;SDS011;44505;43.240;0.070;2023-03-01T03:42:56;6.13;;;5.53;;
58727;SDS011;44505;43.240;0.070;2023-03-01T03:45:21;5.85;;;4.93;;
58727;SDS011;44505;43.240;0.070;2023-03-01T03:47:47;6.32;;;4.82;;
58727;SDS011;44505;43.240;0.070;2023-03-01T03:50:13;6.20;;;4.85;;
58727;SDS011;44505;43.240;0.070;2023-03-01T03:52:39;5.72;;;5.10;;
58727;SDS011;44505;43.240;0.070;2023-03-01T03:55:05;7.65;;;5.13;;
58727;SDS011;44505;43.240;0.070;2023-03-01T03:57:39;6.50;;;4.93;;
58727;SDS011;44505;43.240;0.070;2023-03-01T04:00:05;6.05;;;3.92;;
58727;SDS011;44505;43.240;0.070;2023-03-01T04:02:41;8.15;;;4.43;;
58727;SDS011;44505;43.240;0.070;2023-03-01T04:05:07;7.43;;;4.88;;
58727;SDS011;44505;43.240;0.070;2023-03-01T04:07:33;6.45;;;4.28;;
58727;SDS011;44505;43.240;0.070;2023-03-01T04:09:58;4.63;;;3.90;;
58727;SDS011;44505;43.240;0.070;2023-03-01T04:12:24;6.38;;;4.70;;
58727;SDS011;44505;43.240;0.070;2023-03-01T04:14:49;5.47;;;4.22;;
58727;SDS011;44505;43.240;0.070;2023-03-01T04:17:15;4.38;;;3.95;;
58727;SDS011;44505;43.240;0.070;2023-03-01T04:19:40;5.10;;;3.95;;
58727;SDS011;44505;43.240;0.070;2023-03-01T04:22:09;5.05;;;3.92;;
58727;SDS011;44505;43.240;0.070;2023-03-01T04:24:36;6.93;;;3.90;;
58727;SDS011;44505;43.240;0.070;2023-03-01T04:27:02;6.85;;;5.13;;
58727;SDS011;44505;43.240;0.070;2023-03-01T04:29:27;5.82;;;4.20;;
58727;SDS011;44505;43.240;0.070;2023-03-01T04:31:53;7.22;;;5.15;;
58727;SDS011;44505;43.240;0.070;2023-03-01T04:34:18;5.80;;;4.80;;
58727;SDS011;44505;43.240;0.070;2023-03-01T04:36:44;7.22;;;4.35;;
58727;SDS011;44505;43.240;0.070;2023-03-01T04:39:09;6.13;;;4.45;;
58727;SDS011;44505;43.240;0.070;2023-03-01T04:41:38;5.60;;;4.32;;
58727;SDS011;44505;43.240;0.070;2023-03-01T04:44:04;8.20;;;5.07;;
58727;SDS011;44505;43.240;0.070;2023-03-01T04:46:29;5.35;;;4.38;;
58727;SDS011;44505;43.240;0.070;2023-03-01T04:48:55;6.47;;;4.10;;
58727;SDS011;44505;43.240;0.070;2023-03-01T04:51:20;6.90;;;4.22;;
58727;SDS011;44505;43.240;0.070;2023-03-01T04:53:45;6.43;;;4.70;;
58727;SDS011;44505;43.240;0.070;2023-03-01T04:56:11;5.32;;;4.72;;
58727;SDS011;44505;43.240;0.070;2023-03-01T04:58:38;5.40;;;3.67;;
58727;SDS011;44505;43.240;0.070;2023-03-01T05:01:14;5.28;;;4.28;;
58727;SDS011;44505;43.240;0.070;2023-03-01T05:03:43;6.20;;;4.50;;
58727;SDS011;44505;43.240;0.070;2023-03-01T05:06:09;7.47;;;4.55;;
58727;SDS011;44505;43.240;0.070;2023-03-01T05:08:36;6.90;;;4.60;;
58727;SDS011;44505;43.240;0.070;2023-03-01T05:11:04;5.00;;;3.83;;
58727;SDS011;44505;43.240;0.070;2023-03-01T05:13:30;4.68;;;3.92;;
58727;SDS011;44505;43.240;0.070;2023-03-01T05:15:59;4.65;;;4.22;;
58727;SDS011;44505;43.240;0.070;2023-03-01T05:18:26;7.65;;;4.50;;
58727;SDS011;44505;43.240;0.070;2023-03-01T05:20:52;5.65;;;4.30;;
58727;SDS011;44505;43.240;0.070;2023-03-01T05:23:17;5.93;;;4.38;;
58727;SDS011;44505;43.240;0.070;2023-03-01T05:25:43;6.72;;;3.78;;
58727;SDS011;44505;43.240;0.070;2023-03-01T05:28:12;7.15;;;4.40;;
58727;SDS011;44505;43.240;0.070;2023-03-01T05:30:38;4.72;;;4.10;;
58727;SDS011;44505;43.240;0.070;2023-03-01T05:33:07;4.38;;;3.97;;
58727;SDS011;44505;43.240;0.070;2023-03-01T05:35:39;11.80;;;5.07;;
58727;SDS011;44505;43.240;0.070;2023-03-01T05:38:04;5.78;;;4.38;;
58727;SDS011;44505;43.240;0.070;2023-03-01T05:40:29;6.05;;;4.75;;
58727;SDS011;44505;43.240;0.070;2023-03-01T05:42:55;5.68;;;4.30;;
58727;SDS011;44505;43.240;0.070;2023-03-01T05:45:22;5.07;;;4.05;;
58727;SDS011;44505;43.240;0.070;2023-03-01T05:47:48;7.25;;;4.45;;
58727;SDS011;44505;43.240;0.070;2023-03-01T05:50:15;7.85;;;5.25;;
58727;SDS011;44505;43.240;0.070;2023-03-01T05:52:44;5.75;;;4.30;;
58727;SDS011;44505;43.240;0.070;2023-03-01T05:55:10;6.82;;;3.50;;
58727;SDS011;44505;43.240;0.070;2023-03-01T05:57:35;7.30;;;4.13;;
58727;SDS011;44505;43.240;0.070;2023-03-01T06:00:01;6.63;;;4.95;;
58727;SDS011;44505;43.240;0.070;2023-03-01T06:02:26;5.38;;;4.40;;
58727;SDS011;44505;43.240;0.070;2023-03-01T06:04:52;6.72;;;4.47;;
58727;SDS011;44505;43.240;0.070;2023-03-01T06:07:17;4.82;;;4.22;;
58727;SDS011;44505;43.240;0.070;2023-03-01T06:09:43;7.85;;;4.72;;
58727;SDS011;44505;43.240;0.070;2023-03-01T06:12:08;6.45;;;4.60;;
58727;SDS011;44505;43.240;0.070;2023-03-01T06:14:33;4.78;;;4.07;;
58727;SDS011;44505;43.240;0.070;2023-03-01T06:16:59;5.57;;;4.40;;
58727;SDS011;44505;43.240;0.070;2023-03-01T06:19:24;5.53;;;4.88;;
58727;SDS011;44505;43.240;0.070;2023-03-01T06:21:49;7.97;;;4.53;;
58727;SDS011;44505;43.240;0.070;2023-03-01T06:24:15;7.20;;;5.05;;
58727;SDS011;44505;43.240;0.070;2023-03-01T06:26:40;5.32;;;4.38;;
58727;SDS011;44505;43.240;0.070;2023-03-01T06:29:06;7.15;;;4.80;;
58727;SDS011;44505;43.240;0.070;2023-03-01T06:31:33;6.70;;;4.57;;
58727;SDS011;44505;43.240;0.070;2023-03-01T06:33:59;7.75;;;5.07;;
58727;SDS011;44505;43.240;0.070;2023-03-01T06:36:24;8.45;;;5.00;;
58727;SDS011;44505;43.240;0.070;2023-03-01T06:38:49;5.88;;;4.97;;
58727;SDS011;44505;43.240;0.070;2023-03-01T06:41:15;17.98;;;12.23;;
58727;SDS011;44505;43.240;0.070;2023-03-01T06:43:40;19.05;;;10.90;;
58727;SDS011;44505;43.240;0.070;2023-03-01T06:46:06;17.15;;;13.25;;
58727;SDS011;44505;43.240;0.070;2023-03-01T06:48:34;14.23;;;10.88;;
58727;SDS011;44505;43.240;0.070;2023-03-01T06:50:59;14.77;;;9.55;;
58727;SDS011;44505;43.240;0.070;2023-03-01T06:53:26;13.90;;;10.63;;
58727;SDS011;44505;43.240;0.070;2023-03-01T06:55:55;24.92;;;15.23;;
58727;SDS011;44505;43.240;0.070;2023-03-01T06:58:20;17.02;;;12.15;;
58727;SDS011;44505;43.240;0.070;2023-03-01T07:00:46;21.02;;;13.43;;
58727;SDS011;44505;43.240;0.070;2023-03-01T07:03:11;18.42;;;13.63;;
58727;SDS011;44505;43.240;0.070;2023-03-01T07:05:37;27.90;;;15.68;;
58727;SDS011;44505;43.240;0.070;2023-03-01T07:08:02;11.07;;;8.63;;
58727;SDS011;44505;43.240;0.070;2023-03-01T07:10:27;28.80;;;19.05;;
58727;SDS011;44505;43.240;0.070;2023-03-01T07:12:56;17.13;;;10.88;;
58727;SDS011;44505;43.240;0.070;2023-03-01T07:15:22;9.88;;;8.25;;
58727;SDS011;44505;43.240;0.070;2023-03-01T07:17:47;9.10;;;7.57;;
58727;SDS011;44505;43.240;0.070;2023-03-01T07:20:15;15.77;;;10.13;;
58727;SDS011;44505;43.240;0.070;2023-03-01T07:22:41;13.20;;;10.00;;
58727;SDS011;44505;43.240;0.070;2023-03-01T07:25:09;13.38;;;10.43;;
58727;SDS011;44505;43.240;0.070;2023-03-01T07:27:35;11.07;;;9.18;;
58727;SDS011;44505;43.240;0.070;2023-03-01T07:30:01;21.58;;;13.38;;
58727;SDS011;44505;43.240;0.070;2023-03-01T07:32:26;18.70;;;12.63;;
58727;SDS011;44505;43.240;0.070;2023-03-01T07:34:53;15.18;;;10.25;;
58727;SDS011;44505;43.240;0.070;2023-03-01T07:37:19;51.00;;;27.08;;
58727;SDS011;44505;43.240;0.070;2023-03-01T07:39:44;11.30;;;7.43;;
58727;SDS011;44505;43.240;0.070;2023-03-01T07:42:09;16.90;;;9.82;;
58727;SDS011;44505;43.240;0.070;2023-03-01T07:44:35;22.50;;;14.98;;
58727;SDS011;44505;43.240;0.070;2023-03-01T07:47:00;20.52;;;12.48;;
58727;SDS011;44505;43.240;0.070;2023-03-01T07:49:26;20.38;;;12.20;;
58727;SDS011;44505;43.240;0.070;2023-03-01T07:51:52;22.52;;;13.35;;
58727;SDS011;44505;43.240;0.070;2023-03-01T07:54:17;20.63;;;13.05;;
58727;SDS011;44505;43.240;0.070;2023-03-01T07:56:43;18.90;;;12.10;;
58727;SDS011;44505;43.240;0.070;2023-03-01T07:59:08;12.82;;;9.23;;
58727;SDS011;44505;43.240;0.070;2023-03-01T08:01:34;7.35;;;6.63;;
58727;SDS011;44505;43.240;0.070;2023-03-01T08:03:59;7.60;;;5.75;;
58727;SDS011;44505;43.240;0.070;2023-03-01T08:06:25;11.25;;;8.25;;
58727;SDS011;44505;43.240;0.070;2023-03-01T08:08:50;16.60;;;9.75;;
58727;SDS011;44505;43.240;0.070;2023-03-01T08:11:15;13.00;;;9.00;;
58727;SDS011;44505;43.240;0.070;2023-03-01T08:13:41;20.45;;;11.88;;
58727;SDS011;44505;43.240;0.070;2023-03-01T08:16:07;13.90;;;9.23;;
58727;SDS011;44505;43.240;0.070;2023-03-01T08:18:33;16.23;;;9.10;;
58727;SDS011;44505;43.240;0.070;2023-03-01T08:21:03;12.30;;;8.25;;
58727;SDS011;44505;43.240;0.070;2023-03-01T08:23:28;10.43;;;7.22;;
58727;SDS011;44505;43.240;0.070;2023-03-01T08:25:55;12.20;;;6.72;;
58727;SDS011;44505;43.240;0.070;2023-03-01T08:28:20;7.65;;;5.40;;
58727;SDS011;44505;43.240;0.070;2023-03-01T08:30:45;9.82;;;6.00;;
58727;SDS011;44505;43.240;0.070;2023-03-01T08:33:11;10.75;;;8.27;;
58727;SDS011;44505;43.240;0.070;2023-03-01T08:35:36;12.30;;;7.50;;
58727;SDS011;44505;43.240;0.070;2023-03-01T08:38:02;58.25;;;24.23;;
58727;SDS011;44505;43.240;0.070;2023-03-01T08:40:27;56.97;;;23.10;;
58727;SDS011;44505;43.240;0.070;2023-03-01T08:42:53;184.88;;;66.43;;
58727;SDS011;44505;43.240;0.070;2023-03-01T08:45:18;180.80;;;70.88;;
58727;SDS011;44505;43.240;0.070;2023-03-01T08:47:44;163.20;;;89.88;;
58727;SDS011;44505;43.240;0.070;2023-03-01T08:50:10;167.75;;;81.45;;
58727;SDS011;44505;43.240;0.070;2023-03-01T08:52:35;90.15;;;45.08;;
58727;SDS011;44505;43.240;0.070;2023-03-01T08:55:01;41.15;;;26.17;;
58727;SDS011;44505;43.240;0.070;2023-03-01T08:57:26;47.30;;;30.25;;
58727;SDS011;44505;43.240;0.070;2023-03-01T08:59:52;23.67;;;15.02;;
58727;SDS011;44505;43.240;0.070;2023-03-01T09:02:17;23.42;;;15.10;;
58727;SDS011;44505;43.240;0.070;2023-03-01T09:04:43;20.63;;;16.65;;
58727;SDS011;44505;43.240;0.070;2023-03-01T09:07:09;14.98;;;13.38;;
58727;SDS011;44505;43.240;0.070;2023-03-01T09:09:35;37.20;;;22.63;;
58727;SDS011;44505;43.240;0.070;2023-03-01T09:12:00;30.95;;;18.55;;
58727;SDS011;44505;43.240;0.070;2023-03-01T09:14:26;50.03;;;26.75;;
58727;SDS011;44505;43.240;0.070;2023-03-01T09:16:52;48.10;;;25.70;;
58727;SDS011;44505;43.240;0.070;2023-03-01T09:19:17;22.83;;;14.40;;
58727;SDS011;44505;43.240;0.070;2023-03-01T09:21:42;22.70;;;14.65;;
58727;SDS011;44505;43.240;0.070;2023-03-01T09:24:17;19.08;;;11.70;;
58727;SDS011;44505;43.240;0.070;2023-03-01T09:26:43;121.03;;;53.70;;
58727;SDS011;44505;43.240;0.070;2023-03-01T09:29:11;58.65;;;33.17;;
58727;SDS011;44505;43.240;0.070;2023-03-01T09:31:37;17.92;;;12.90;;
58727;SDS011;44505;43.240;0.070;2023-03-01T09:34:02;15.75;;;10.13;;
58727;SDS011;44505;43.240;0.070;2023-03-01T09:36:28;17.17;;;12.10;;
58727;SDS011;44505;43.240;0.070;2023-03-01T09:38:53;39.47;;;22.55;;
58727;SDS011;44505;43.240;0.070;2023-03-01T09:44:27;33.13;;;18.65;;
58727;SDS011;44505;43.240;0.070;2023-03-01T09:46:49;127.68;;;59.00;;
58727;SDS011;44505;43.240;0.070;2023-03-01T09:49:16;33.25;;;19.30;;
58727;SDS011;44505;43.240;0.070;2023-03-01T09:51:42;57.20;;;30.50;;
58727;SDS011;44505;43.240;0.070;2023-03-01T09:54:08;23.50;;;16.52;;
58727;SDS011;44505;43.240;0.070;2023-03-01T09:56:40;28.08;;;21.58;;
58727;SDS011;44505;43.240;0.070;2023-03-01T10:01:59;56.83;;;42.67;;
58727;SDS011;44505;43.240;0.070;2023-03-01T10:04:27;10.45;;;8.57;;
58727;SDS011;44505;43.240;0.070;2023-03-01T10:07:02;8.77;;;7.35;;
58727;SDS011;44505;43.240;0.070;2023-03-01T10:09:32;7.95;;;7.25;;
58727;SDS011;44505;43.240;0.070;2023-03-01T10:11:58;9.07;;;7.45;;
58727;SDS011;44505;43.240;0.070;2023-03-01T10:17:04;11.13;;;9.98;;
58727;SDS011;44505;43.240;0.070;2023-03-01T10:22:00;8.07;;;7.25;;
58727;SDS011;44505;43.240;0.070;2023-03-01T10:24:27;6.20;;;5.15;;
58727;SDS011;44505;43.240;0.070;2023-03-01T10:26:57;7.63;;;6.93;;
58727;SDS011;44505;43.240;0.070;2023-03-01T10:30:10;7.50;;;6.80;;
58727;SDS011;44505;43.240;0.070;2023-03-01T10:32:14;6.03;;;4.53;;
58727;SDS011;44505;43.240;0.070;2023-03-01T10:34:40;5.30;;;4.78;;
58727;SDS011;44505;43.240;0.070;2023-03-01T10:42:34;6.05;;;5.40;;
58727;SDS011;44505;43.240;0.070;2023-03-01T10:45:15;8.20;;;6.57;;
58727;SDS011;44505;43.240;0.070;2023-03-01T10:47:41;5.40;;;4.68;;
58727;SDS011;44505;43.240;0.070;2023-03-01T10:50:25;7.90;;;6.25;;
58727;SDS011;44505;43.240;0.070;2023-03-01T10:53:00;6.05;;;5.53;;
58727;SDS011;44505;43.240;0.070;2023-03-01T10:58:20;6.80;;;5.75;;
58727;SDS011;44505;43.240;0.070;2023-03-01T11:00:54;13.68;;;9.68;;
58727;SDS011;44505;43.240;0.070;2023-03-01T11:03:40;5.88;;;4.32;;
58727;SDS011;44505;43.240;0.070;2023-03-01T11:06:12;6.97;;;4.72;;
58727;SDS011;44505;43.240;0.070;2023-03-01T11:08:45;10.23;;;9.05;;
58727;SDS011;44505;43.240;0.070;2023-03-01T11:11:21;8.10;;;5.78;;
58727;SDS011;44505;43.240;0.070;2023-03-01T11:13:49;5.82;;;5.00;;
58727;SDS011;44505;43.240;0.070;2023-03-01T11:16:16;14.98;;;9.90;;
58727;SDS011;44505;43.240;0.070;2023-03-01T11:18:55;8.48;;;5.55;;
58727;SDS011;44505;43.240;0.070;2023-03-01T11:21:20;10.18;;;6.32;;
58727;SDS011;44505;43.240;0.070;2023-03-01T11:23:46;14.18;;;9.88;;
58727;SDS011;44505;43.240;0.070;2023-03-01T11:26:12;30.55;;;14.98;;
58727;SDS011;44505;43.240;0.070;2023-03-01T11:28:38;14.88;;;10.85;;
58727;SDS011;44505;43.240;0.070;2023-03-01T11:31:09;9.27;;;7.05;;
58727;SDS011;44505;43.240;0.070;2023-03-01T11:33:44;33.33;;;22.63;;
58727;SDS011;44505;43.240;0.070;2023-03-01T11:36:28;14.45;;;11.32;;
58727;SDS011;44505;43.240;0.070;2023-03-01T11:38:56;11.93;;;9.07;;
58727;SDS011;44505;43.240;0.070;2023-03-01T11:41:26;29.48;;;17.58;;
58727;SDS011;44505;43.240;0.070;2023-03-01T11:52:03;7.18;;;6.20;;
58727;SDS011;44505;43.240;0.070;2023-03-01T11:57:40;15.60;;;9.68;;
58727;SDS011;44505;43.240;0.070;2023-03-01T12:02:40;10.98;;;7.43;;
58727;SDS011;44505;43.240;0.070;2023-03-01T12:10:25;10.35;;;7.03;;
58727;SDS011;44505;43.240;0.070;2023-03-01T12:25:39;11.73;;;10.63;;
58727;SDS011;44505;43.240;0.070;2023-03-01T12:43:24;7.47;;;5.78;;
58727;SDS011;44505;43.240;0.070;2023-03-01T12:48:24;9.10;;;7.85;;
58727;SDS011;44505;43.240;0.070;2023-03-01T12:50:53;8.57;;;6.78;;
58727;SDS011;44505;43.240;0.070;2023-03-01T12:53:22;9.70;;;6.53;;
58727;SDS011;44505;43.240;0.070;2023-03-01T12:55:48;9.88;;;8.50;;
58727;SDS011;44505;43.240;0.070;2023-03-01T13:00:45;9.27;;;7.03;;
58727;SDS011;44505;43.240;0.070;2023-03-01T13:10:50;7.90;;;6.72;;
58727;SDS011;44505;43.240;0.070;2023-03-01T13:15:45;7.95;;;6.78;;
58727;SDS011;44505;43.240;0.070;2023-03-01T13:31:00;10.13;;;8.10;;
58727;SDS011;44505;43.240;0.070;2023-03-01T13:35:51;8.52;;;7.13;;
58727;SDS011;44505;43.240;0.070;2023-03-01T13:41:01;8.00;;;6.18;;
58727;SDS011;44505;43.240;0.070;2023-03-01T13:43:28;6.75;;;6.05;;
58727;SDS011;44505;43.240;0.070;2023-03-01T13:45:54;11.67;;;8.60;;
58727;SDS011;44505;43.240;0.070;2023-03-01T13:48:24;13.40;;;10.30;;
58727;SDS011;44505;43.240;0.070;2023-03-01T13:50:51;7.97;;;6.70;;
58727;SDS011;44505;43.240;0.070;2023-03-01T13:53:18;9.32;;;6.78;;
58727;SDS011;44505;43.240;0.070;2023-03-01T13:55:48;8.63;;;7.28;;
58727;SDS011;44505;43.240;0.070;2023-03-01T13:58:29;9.20;;;7.35;;
58727;SDS011;44505;43.240;0.070;2023-03-01T14:00:59;8.93;;;8.02;;
58727;SDS011;44505;43.240;0.070;2023-03-01T14:03:25;6.80;;;6.00;;
58727;SDS011;44505;43.240;0.070;2023-03-01T14:05:58;12.10;;;8.55;;
58727;SDS011;44505;43.240;0.070;2023-03-01T14:08:24;9.65;;;8.15;;
58727;SDS011;44505;43.240;0.070;2023-03-01T14:14:04;9.88;;;8.25;;
58727;SDS011;44505;43.240;0.070;2023-03-01T14:19:00;12.77;;;7.63;;
58727;SDS011;44505;43.240;0.070;2023-03-01T14:21:29;8.13;;;7.13;;
58727;SDS011;44505;43.240;0.070;2023-03-01T14:23:54;8.75;;;7.65;;
58727;SDS011;44505;43.240;0.070;2023-03-01T14:26:20;8.23;;;7.10;;
58727;SDS011;44505;43.240;0.070;2023-03-01T14:28:46;9.07;;;8.13;;
58727;SDS011;44505;43.240;0.070;2023-03-01T14:33:56;7.78;;;6.97;;
58727;SDS011;44505;43.240;0.070;2023-03-01T14:36:25;7.60;;;6.53;;
58727;SDS011;44505;43.240;0.070;2023-03-01T14:38:51;12.75;;;8.43;;
58727;SDS011;44505;43.240;0.070;2023-03-01T14:41:21;7.57;;;6.35;;
58727;SDS011;44505;43.240;0.070;2023-03-01T14:43:57;7.63;;;6.53;;
58727;SDS011;44505;43.240;0.070;2023-03-01T14:48:51;8.68;;;6.28;;
58727;SDS011;44505;43.240;0.070;2023-03-01T14:51:18;6.60;;;5.93;;
58727;SDS011;44505;43.240;0.070;2023-03-01T14:53:43;6.63;;;5.97;;
58727;SDS011;44505;43.240;0.070;2023-03-01T14:56:13;8.30;;;7.07;;
58727;SDS011;44505;43.240;0.070;2023-03-01T14:58:38;49.97;;;30.33;;
58727;SDS011;44505;43.240;0.070;2023-03-01T15:01:04;56.75;;;38.38;;
58727;SDS011;44505;43.240;0.070;2023-03-01T15:03:34;45.70;;;30.73;;
58727;SDS011;44505;43.240;0.070;2023-03-01T15:06:00;23.58;;;14.75;;
58727;SDS011;44505;43.240;0.070;2023-03-01T15:08:27;13.13;;;11.82;;
58727;SDS011;44505;43.240;0.070;2023-03-01T15:13:38;38.70;;;30.88;;
58727;SDS011;44505;43.240;0.070;2023-03-01T15:16:05;10.85;;;8.68;;
58727;SDS011;44505;43.240;0.070;2023-03-01T15:18:31;8.30;;;6.63;;
58727;SDS011;44505;43.240;0.070;2023-03-01T15:21:08;13.77;;;11.75;;
58727;SDS011;44505;43.240;0.070;2023-03-01T15:23:33;12.20;;;9.60;;
58727;SDS011;44505;43.240;0.070;2023-03-01T15:25:59;12.05;;;10.82;;
58727;SDS011;44505;43.240;0.070;2023-03-01T15:28:33;12.50;;;11.25;;
58727;SDS011;44505;43.240;0.070;2023-03-01T15:31:02;12.25;;;10.88;;
58727;SDS011;44505;43.240;0.070;2023-03-01T15:33:33;9.50;;;7.45;;
58727;SDS011;44505;43.240;0.070;2023-03-01T15:35:59;9.75;;;8.77;;
58727;SDS011;44505;43.240;0.070;2023-03-01T15:38:26;13.63;;;12.00;;
58727;SDS011;44505;43.240;0.070;2023-03-01T15:40:52;9.05;;;8.02;;
58727;SDS011;44505;43.240;0.070;2023-03-01T15:43:37;13.68;;;10.80;;
58727;SDS011;44505;43.240;0.070;2023-03-01T15:46:03;10.65;;;8.02;;
58727;SDS011;44505;43.240;0.070;2023-03-01T15:48:29;8.77;;;7.40;;
58727;SDS011;44505;43.240;0.070;2023-03-01T15:50:55;8.13;;;6.85;;
58727;SDS011;44505;43.240;0.070;2023-03-01T15:53:21;9.50;;;6.90;;
58727;SDS011;44505;43.240;0.070;2023-03-01T15:55:47;9.93;;;6.90;;
58727;SDS011;44505;43.240;0.070;2023-03-01T16:00:41;10.15;;;7.40;;
58727;SDS011;44505;43.240;0.070;2023-03-01T16:03:06;11.48;;;8.93;;
58727;SDS011;44505;43.240;0.070;2023-03-01T16:05:34;12.68;;;7.65;;
58727;SDS011;44505;43.240;0.070;2023-03-01T16:08:00;10.93;;;7.88;;
58727;SDS011;44505;43.240;0.070;2023-03-01T16:10:26;10.65;;;8.77;;
58727;SDS011;44505;43.240;0.070;2023-03-01T16:12:51;10.13;;;7.97;;
58727;SDS011;44505;43.240;0.070;2023-03-01T16:15:21;12.32;;;7.75;;
58727;SDS011;44505;43.240;0.070;2023-03-01T16:17:46;8.40;;;6.93;;
58727;SDS011;44505;43.240;0.070;2023-03-01T16:20:12;11.57;;;8.55;;
58727;SDS011;44505;43.240;0.070;2023-03-01T16:22:40;12.48;;;7.53;;
58727;SDS011;44505;43.240;0.070;2023-03-01T16:25:06;9.38;;;7.82;;
58727;SDS011;44505;43.240;0.070;2023-03-01T16:27:33;10.60;;;8.25;;
58727;SDS011;44505;43.240;0.070;2023-03-01T16:29:58;10.85;;;7.45;;
58727;SDS011;44505;43.240;0.070;2023-03-01T16:32:24;9.77;;;7.57;;
58727;SDS011;44505;43.240;0.070;2023-03-01T16:34:50;13.90;;;10.95;;
58727;SDS011;44505;43.240;0.070;2023-03-01T16:37:15;10.55;;;7.68;;
58727;SDS011;44505;43.240;0.070;2023-03-01T16:39:41;11.65;;;9.02;;
58727;SDS011;44505;43.240;0.070;2023-03-01T16:42:06;13.40;;;11.30;;
58727;SDS011;44505;43.240;0.070;2023-03-01T16:44:32;12.95;;;8.90;;
58727;SDS011;44505;43.240;0.070;2023-03-01T16:46:58;13.27;;;10.70;;